createdAt,value
2023-04-23T00:00:12.233Z,51.15
2023-04-23T00:02:40.862Z,53.08
2023-04-23T00:05:10.207Z,52.95
2023-04-23T00:07:38.555Z,51.55
2023-04-23T00:10:09.007Z,51.92
2023-04-23T00:12:37.232Z,50.75
2023-04-23T00:15:06.851Z,51.38
2023-04-23T00:17:36.094Z,48.60
2023-04-23T00:20:04.080Z,51.15
2023-04-23T00:22:32.083Z,49.97
2023-04-23T00:24:59.908Z,53.33
2023-04-23T00:27:27.794Z,55.10
2023-04-23T00:29:55.627Z,53.72
2023-04-23T18:51:06.297Z,4.07
2023-04-23T18:53:37.078Z,4.25
2023-04-23T18:56:05.012Z,3.78
2023-04-23T18:58:32.914Z,4.03
2023-04-23T19:01:01.067Z,3.80
2023-04-23T19:03:29.719Z,2.92
2023-04-23T19:05:58.187Z,3.53
2023-04-23T19:08:29.308Z,3.55
2023-04-23T19:10:57.364Z,3.38
2023-04-23T19:13:25.290Z,3.17
2023-04-23T19:15:53.648Z,2.85
2023-04-23T19:18:21.711Z,3.10
2023-04-23T19:20:49.571Z,3.53
2023-04-23T19:23:17.467Z,3.55
2023-04-23T19:25:46.797Z,3.53
2023-04-23T19:28:14.686Z,3.47
2023-04-23T19:30:42.600Z,3.47
2023-04-23T19:33:11.792Z,2.80
2023-04-23T19:35:40.525Z,2.92
2023-04-23T19:38:08.484Z,3.05
2023-04-23T19:40:36.459Z,3.00
2023-04-23T19:43:05.744Z,2.75
2023-04-23T19:45:33.893Z,3.17
2023-04-23T19:48:04.494Z,2.80
2023-04-23T19:50:32.912Z,2.63
2023-04-23T19:53:00.867Z,2.70
2023-04-23T19:55:28.917Z,2.17
2023-04-23T19:57:58.392Z,1.90
2023-04-23T20:00:29.941Z,1.65
2023-04-23T20:02:58.216Z,2.35
2023-04-23T20:05:27.834Z,1.55
2023-04-23T20:07:55.953Z,1.75
2023-04-23T20:10:29.011Z,1.42
2023-04-23T20:12:58.778Z,1.70
2023-04-23T20:15:28.274Z,1.52
2023-04-23T20:17:56.315Z,1.40
2023-04-23T20:20:25.655Z,1.58
2023-04-23T20:22:53.588Z,1.30
2023-04-23T20:25:25.547Z,0.90
2023-04-23T20:27:56.858Z,1.02
2023-04-23T20:30:24.929Z,1.25
2023-04-23T20:32:54.512Z,1.30
2023-04-23T20:35:22.485Z,1.00
2023-04-23T20:37:50.354Z,0.80
2023-04-23T20:40:18.902Z,0.98
2023-04-23T20:42:51.381Z,0.90
2023-04-23T20:45:20.807Z,1.30
2023-04-23T20:47:50.128Z,1.40
2023-04-23T20:50:19.606Z,0.85
2023-04-23T20:52:47.485Z,1.20
2023-04-23T20:55:15.634Z,1.05
2023-04-23T20:57:43.498Z,1.20
2023-04-23T21:00:12.740Z,1.20
2023-04-23T21:02:40.884Z,0.98
2023-04-23T21:05:09.504Z,1.00
2023-04-23T21:07:38.757Z,0.70
2023-04-23T21:10:07.692Z,0.82
2023-04-23T21:12:36.199Z,0.60
2023-04-23T21:15:04.545Z,0.60
2023-04-23T21:17:32.699Z,0.70
2023-04-23T21:20:00.596Z,0.50
2023-04-23T21:22:28.694Z,0.85
2023-04-23T21:24:57.970Z,0.55
2023-04-23T21:27:25.946Z,0.65
2023-04-23T21:29:53.945Z,0.50
2023-04-23T21:32:22.220Z,0.60
2023-04-23T21:34:50.192Z,0.80
2023-04-23T21:37:18.141Z,0.38
2023-04-23T21:39:46.029Z,0.50
2023-04-23T21:42:15.592Z,0.50
2023-04-23T21:44:44.000Z,0.50
2023-04-23T21:47:11.910Z,0.47
2023-04-23T21:49:39.964Z,0.35
2023-04-23T21:52:08.918Z,0.40
2023-04-23T21:54:36.848Z,0.60
2023-04-23T21:57:05.649Z,0.35
